sensor_id;sensor_type;location;lat;lon;timestamp;temperature;humidity
60039;DHT22;45916;52.734;6.544;2022-11-15T00:00:28;7.30;99.90
60039;DHT22;45916;52.734;6.544;2022-11-15T00:02:54;7.40;99.90
60039;DHT22;45916;52.734;6.544;2022-11-15T00:05:20;7.40;99.90
60039;DHT22;45916;52.734;6.544;2022-11-15T00:07:46;7.50;99.90
60039;DHT22;45916;52.734;6.544;2022-11-15T00:10:12;7.50;99.90
60039;DHT22;45916;52.734;6.544;2022-11-15T00:12:38;7.50;99.90
60039;DHT22;45916;52.734;6.544;2022-11-15T00:15:04;7.50;99.90
60039;DHT22;45916;52.734;6.544;2022-11-15T00:17:30;7.50;99.90
60039;DHT22;45916;52.734;6.544;2022-11-15T00:19:56;7.50;99.90
60039;DHT22;45916;52.734;6.544;2022-11-15T00:22:21;7.50;99.90
60039;DHT22;45916;52.734;6.544;2022-11-15T00:24:47;7.60;99.90
60039;DHT22;45916;52.734;6.544;2022-11-15T00:27:13;7.60;99.90
60039;DHT22;45916;52.734;6.544;2022-11-15T00:29:38;7.60;99.90
60039;DHT22;45916;52.734;6.544;2022-11-15T00:32:09;7.70;99.90
60039;DHT22;45916;52.734;6.544;2022-11-15T00:34:35;7.70;99.90
60039;DHT22;45916;52.734;6.544;2022-11-15T00:37:01;7.70;99.90
60039;DHT22;45916;52.734;6.544;2022-11-15T00:39:26;7.70;99.90
60039;DHT22;45916;52.734;6.544;2022-11-15T00:41:52;7.70;99.90
60039;DHT22;45916;52.734;6.544;2022-11-15T00:44:18;7.70;99.90
60039;DHT22;45916;52.734;6.544;2022-11-15T00:46:43;7.70;99.90
60039;DHT22;45916;52.734;6.544;2022-11-15T00:49:09;7.60;99.90
60039;DHT22;45916;52.734;6.544;2022-11-15T00:51:35;7.70;99.90
60039;DHT22;45916;52.734;6.544;2022-11-15T00:54:00;7.60;99.90
60039;DHT22;45916;52.734;6.544;2022-11-15T00:56:26;7.70;99.90
60039;DHT22;45916;52.734;6.544;2022-11-15T00:58:53;7.70;99.90
60039;DHT22;45916;52.734;6.544;2022-11-15T01:01:18;7.60;99.90
60039;DHT22;45916;52.734;6.544;2022-11-15T01:03:44;7.60;99.90
60039;DHT22;45916;52.734;6.544;2022-11-15T01:06:10;7.60;99.90
60039;DHT22;45916;52.734;6.544;2022-11-15T01:08:39;7.60;99.90
60039;DHT22;45916;52.734;6.544;2022-11-15T01:11:08;7.60;99.90
60039;DHT22;45916;52.734;6.544;2022-11-15T01:13:37;7.60;99.90
60039;DHT22;45916;52.734;6.544;2022-11-15T01:16:10;7.60;99.90
60039;DHT22;45916;52.734;6.544;2022-11-15T01:18:37;7.60;99.90
60039;DHT22;45916;52.734;6.544;2022-11-15T01:21:21;7.60;99.90
60039;DHT22;45916;52.734;6.544;2022-11-15T01:23:46;7.60;99.90
60039;DHT22;45916;52.734;6.544;2022-11-15T01:26:14;7.70;99.90
60039;DHT22;45916;52.734;6.544;2022-11-15T01:28:41;7.70;99.90
60039;DHT22;45916;52.734;6.544;2022-11-15T01:31:12;7.70;99.90
60039;DHT22;45916;52.734;6.544;2022-11-15T01:33:38;7.70;99.90
60039;DHT22;45916;52.734;6.544;2022-11-15T01:36:05;7.70;99.90
60039;DHT22;45916;52.734;6.544;2022-11-15T01:38:31;7.80;99.90
60039;DHT22;45916;52.734;6.544;2022-11-15T01:40:57;7.70;99.90
60039;DHT22;45916;52.734;6.544;2022-11-15T01:43:25;7.80;99.90
60039;DHT22;45916;52.734;6.544;2022-11-15T01:45:52;7.80;99.90
60039;DHT22;45916;52.734;6.544;2022-11-15T01:48:21;7.80;99.90
60039;DHT22;45916;52.734;6.544;2022-11-15T01:50:47;7.70;99.90
60039;DHT22;45916;52.734;6.544;2022-11-15T01:53:14;7.80;99.90
60039;DHT22;45916;52.734;6.544;2022-11-15T01:55:40;7.70;99.90
60039;DHT22;45916;52.734;6.544;2022-11-15T01:58:07;7.70;99.90
60039;DHT22;45916;52.734;6.544;2022-11-15T02:00:33;7.70;99.90
60039;DHT22;45916;52.734;6.544;2022-11-15T02:02:59;7.80;99.90
60039;DHT22;45916;52.734;6.544;2022-11-15T02:05:24;7.80;99.90
60039;DHT22;45916;52.734;6.544;2022-11-15T02:07:51;7.90;99.90
60039;DHT22;45916;52.734;6.544;2022-11-15T02:10:20;7.90;99.90
60039;DHT22;45916;52.734;6.544;2022-11-15T02:12:46;7.90;99.90
60039;DHT22;45916;52.734;6.544;2022-11-15T02:15:13;7.90;99.90
60039;DHT22;45916;52.734;6.544;2022-11-15T02:26:25;7.80;99.90
60039;DHT22;45916;52.734;6.544;2022-11-15T02:29:32;7.90;99.90
60039;DHT22;45916;52.734;6.544;2022-11-15T02:32:36;7.90;99.90
60039;DHT22;45916;52.734;6.544;2022-11-15T02:37:56;7.90;99.90
60039;DHT22;45916;52.734;6.544;2022-11-15T02:40:47;7.90;99.90
60039;DHT22;45916;52.734;6.544;2022-11-15T02:43:24;7.90;99.90
60039;DHT22;45916;52.734;6.544;2022-11-15T02:46:37;7.90;99.90
60039;DHT22;45916;52.734;6.544;2022-11-15T02:49:24;8.00;99.90
60039;DHT22;45916;52.734;6.544;2022-11-15T02:51:52;8.00;99.90
60039;DHT22;45916;52.734;6.544;2022-11-15T02:54:25;8.00;99.90
60039;DHT22;45916;52.734;6.544;2022-11-15T02:56:54;8.10;99.90
60039;DHT22;45916;52.734;6.544;2022-11-15T03:00:01;8.10;99.90
60039;DHT22;45916;52.734;6.544;2022-11-15T03:05:28;8.10;99.90
60039;DHT22;45916;52.734;6.544;2022-11-15T03:13:53;8.10;99.90
60039;DHT22;45916;52.734;6.544;2022-11-15T03:16:40;8.10;99.90
60039;DHT22;45916;52.734;6.544;2022-11-15T03:19:38;8.10;99.90
60039;DHT22;45916;52.734;6.544;2022-11-15T03:22:09;8.10;99.90
60039;DHT22;45916;52.734;6.544;2022-11-15T03:24:36;8.10;99.90
60039;DHT22;45916;52.734;6.544;2022-11-15T03:27:06;8.10;99.90
60039;DHT22;45916;52.734;6.544;2022-11-15T03:29:39;8.10;99.90
60039;DHT22;45916;52.734;6.544;2022-11-15T03:32:15;8.10;99.90
60039;DHT22;45916;52.734;6.544;2022-11-15T03:34:45;8.20;99.90
60039;DHT22;45916;52.734;6.544;2022-11-15T03:37:14;8.20;99.90
60039;DHT22;45916;52.734;6.544;2022-11-15T03:39:41;8.20;99.90
60039;DHT22;45916;52.734;6.544;2022-11-15T03:45:32;8.30;99.90
60039;DHT22;45916;52.734;6.544;2022-11-15T03:48:13;8.40;99.90
60039;DHT22;45916;52.734;6.544;2022-11-15T03:50:41;8.40;99.90
60039;DHT22;45916;52.734;6.544;2022-11-15T03:53:07;8.50;99.90
60039;DHT22;45916;52.734;6.544;2022-11-15T03:55:33;8.40;99.90
60039;DHT22;45916;52.734;6.544;2022-11-15T03:58:00;8.50;99.90
60039;DHT22;45916;52.734;6.544;2022-11-15T04:00:27;8.50;99.90
60039;DHT22;45916;52.734;6.544;2022-11-15T04:02:53;8.50;99.90
60039;DHT22;45916;52.734;6.544;2022-11-15T04:05:18;8.50;99.90
60039;DHT22;45916;52.734;6.544;2022-11-15T04:07:44;8.60;99.90
60039;DHT22;45916;52.734;6.544;2022-11-15T04:10:11;8.60;99.90
60039;DHT22;45916;52.734;6.544;2022-11-15T04:12:40;8.70;99.90
60039;DHT22;45916;52.734;6.544;2022-11-15T04:15:13;8.70;99.90
60039;DHT22;45916;52.734;6.544;2022-11-15T04:17:46;8.70;99.90
60039;DHT22;45916;52.734;6.544;2022-11-15T04:20:26;8.70;99.90
60039;DHT22;45916;52.734;6.544;2022-11-15T04:23:13;8.80;99.90
60039;DHT22;45916;52.734;6.544;2022-11-15T04:26:00;8.80;99.90
60039;DHT22;45916;52.734;6.544;2022-11-15T04:28:26;8.80;99.90
60039;DHT22;45916;52.734;6.544;2022-11-15T04:30:52;8.90;99.90
60039;DHT22;45916;52.734;6.544;2022-11-15T04:33:18;8.90;99.90
60039;DHT22;45916;52.734;6.544;2022-11-15T04:35:44;8.90;99.90
60039;DHT22;45916;52.734;6.544;2022-11-15T04:38:30;9.00;99.90
60039;DHT22;45916;52.734;6.544;2022-11-15T04:40:56;9.00;99.90
60039;DHT22;45916;52.734;6.544;2022-11-15T04:43:21;9.10;99.90
60039;DHT22;45916;52.734;6.544;2022-11-15T04:45:47;9.10;99.90
60039;DHT22;45916;52.734;6.544;2022-11-15T04:48:13;9.10;99.90
60039;DHT22;45916;52.734;6.544;2022-11-15T04:50:38;9.20;99.90
60039;DHT22;45916;52.734;6.544;2022-11-15T04:53:04;9.20;99.90
60039;DHT22;45916;52.734;6.544;2022-11-15T04:55:30;9.30;99.90
60039;DHT22;45916;52.734;6.544;2022-11-15T04:58:00;9.30;99.90
60039;DHT22;45916;52.734;6.544;2022-11-15T05:00:26;9.30;99.90
60039;DHT22;45916;52.734;6.544;2022-11-15T05:02:52;9.30;99.90
60039;DHT22;45916;52.734;6.544;2022-11-15T05:05:37;9.40;99.90
60039;DHT22;45916;52.734;6.544;2022-11-15T05:08:03;9.40;99.90
60039;DHT22;45916;52.734;6.544;2022-11-15T05:10:29;9.50;99.90
60039;DHT22;45916;52.734;6.544;2022-11-15T05:12:54;9.50;99.90
60039;DHT22;45916;52.734;6.544;2022-11-15T05:15:20;9.50;99.90
60039;DHT22;45916;52.734;6.544;2022-11-15T05:17:46;9.60;99.90
60039;DHT22;45916;52.734;6.544;2022-11-15T05:20:11;9.60;99.90
60039;DHT22;45916;52.734;6.544;2022-11-15T05:22:38;9.70;99.90
60039;DHT22;45916;52.734;6.544;2022-11-15T05:25:04;9.70;99.90
60039;DHT22;45916;52.734;6.544;2022-11-15T05:27:30;9.70;99.90
60039;DHT22;45916;52.734;6.544;2022-11-15T05:29:56;9.80;99.90
60039;DHT22;45916;52.734;6.544;2022-11-15T05:32:21;9.80;99.90
60039;DHT22;45916;52.734;6.544;2022-11-15T05:34:47;9.90;99.90
60039;DHT22;45916;52.734;6.544;2022-11-15T05:37:14;9.90;99.90
60039;DHT22;45916;52.734;6.544;2022-11-15T05:39:39;10.00;99.90
60039;DHT22;45916;52.734;6.544;2022-11-15T05:44:34;10.00;99.90
60039;DHT22;45916;52.734;6.544;2022-11-15T05:47:03;10.00;99.90
60039;DHT22;45916;52.734;6.544;2022-11-15T05:49:31;10.00;99.90
60039;DHT22;45916;52.734;6.544;2022-11-15T05:52:00;10.10;99.90
60039;DHT22;45916;52.734;6.544;2022-11-15T05:54:27;10.10;99.90
60039;DHT22;45916;52.734;6.544;2022-11-15T05:56:53;10.20;99.90
60039;DHT22;45916;52.734;6.544;2022-11-15T05:59:20;10.20;99.90
60039;DHT22;45916;52.734;6.544;2022-11-15T06:01:46;10.20;99.90
60039;DHT22;45916;52.734;6.544;2022-11-15T06:04:11;10.20;99.90
60039;DHT22;45916;52.734;6.544;2022-11-15T06:06:37;10.20;99.90
60039;DHT22;45916;52.734;6.544;2022-11-15T06:09:03;10.20;99.90
60039;DHT22;45916;52.734;6.544;2022-11-15T06:11:28;10.30;99.90
60039;DHT22;45916;52.734;6.544;2022-11-15T06:13:54;10.30;99.90
60039;DHT22;45916;52.734;6.544;2022-11-15T06:16:20;10.30;99.90
60039;DHT22;45916;52.734;6.544;2022-11-15T06:18:45;10.40;99.90
60039;DHT22;45916;52.734;6.544;2022-11-15T06:21:11;10.40;99.90
60039;DHT22;45916;52.734;6.544;2022-11-15T06:23:37;10.40;99.90
60039;DHT22;45916;52.734;6.544;2022-11-15T06:26:03;10.40;99.90
60039;DHT22;45916;52.734;6.544;2022-11-15T06:28:29;10.40;99.90
60039;DHT22;45916;52.734;6.544;2022-11-15T06:30:56;10.40;99.90
60039;DHT22;45916;52.734;6.544;2022-11-15T06:33:22;10.40;99.90
60039;DHT22;45916;52.734;6.544;2022-11-15T06:35:48;10.50;99.90
60039;DHT22;45916;52.734;6.544;2022-11-15T06:38:13;10.50;99.90
60039;DHT22;45916;52.734;6.544;2022-11-15T06:40:39;10.50;99.90
60039;DHT22;45916;52.734;6.544;2022-11-15T06:43:06;10.50;99.90
60039;DHT22;45916;52.734;6.544;2022-11-15T06:45:32;10.50;99.90
60039;DHT22;45916;52.734;6.544;2022-11-15T06:47:58;10.60;99.90
60039;DHT22;45916;52.734;6.544;2022-11-15T06:50:24;10.60;99.90
60039;DHT22;45916;52.734;6.544;2022-11-15T06:52:49;10.60;99.90
60039;DHT22;45916;52.734;6.544;2022-11-15T06:55:15;10.60;99.90
60039;DHT22;45916;52.734;6.544;2022-11-15T06:57:51;10.70;99.90
60039;DHT22;45916;52.734;6.544;2022-11-15T07:00:20;10.60;99.90
60039;DHT22;45916;52.734;6.544;2022-11-15T07:02:46;10.70;99.90
60039;DHT22;45916;52.734;6.544;2022-11-15T07:05:13;10.70;99.90
60039;DHT22;45916;52.734;6.544;2022-11-15T07:07:39;10.70;99.90
60039;DHT22;45916;52.734;6.544;2022-11-15T07:10:05;10.70;99.90
60039;DHT22;45916;52.734;6.544;2022-11-15T07:12:31;10.70;99.90
60039;DHT22;45916;52.734;6.544;2022-11-15T07:14:57;10.70;99.90
60039;DHT22;45916;52.734;6.544;2022-11-15T07:17:22;10.70;99.90
60039;DHT22;45916;52.734;6.544;2022-11-15T07:19:48;10.70;99.90
60039;DHT22;45916;52.734;6.544;2022-11-15T07:22:13;10.70;99.90
60039;DHT22;45916;52.734;6.544;2022-11-15T07:24:39;10.70;99.90
60039;DHT22;45916;52.734;6.544;2022-11-15T07:27:05;10.70;99.90
60039;DHT22;45916;52.734;6.544;2022-11-15T07:29:30;10.80;99.90
60039;DHT22;45916;52.734;6.544;2022-11-15T07:31:56;10.80;99.90
60039;DHT22;45916;52.734;6.544;2022-11-15T07:34:22;10.80;99.90
60039;DHT22;45916;52.734;6.544;2022-11-15T07:36:47;10.90;99.90
60039;DHT22;45916;52.734;6.544;2022-11-15T07:39:13;10.90;99.90
60039;DHT22;45916;52.734;6.544;2022-11-15T07:41:39;10.80;99.90
60039;DHT22;45916;52.734;6.544;2022-11-15T07:44:05;10.90;99.90
60039;DHT22;45916;52.734;6.544;2022-11-15T07:46:31;10.90;99.90
60039;DHT22;45916;52.734;6.544;2022-11-15T07:48:57;10.90;99.90
60039;DHT22;45916;52.734;6.544;2022-11-15T07:51:23;11.00;99.90
60039;DHT22;45916;52.734;6.544;2022-11-15T07:53:49;11.00;99.90
60039;DHT22;45916;52.734;6.544;2022-11-15T07:56:15;11.00;99.90
60039;DHT22;45916;52.734;6.544;2022-11-15T07:58:40;11.00;99.90
60039;DHT22;45916;52.734;6.544;2022-11-15T08:01:08;11.00;99.90
60039;DHT22;45916;52.734;6.544;2022-11-15T08:03:34;11.00;99.90
60039;DHT22;45916;52.734;6.544;2022-11-15T08:06:00;11.00;99.90
60039;DHT22;45916;52.734;6.544;2022-11-15T08:08:26;11.00;99.90
60039;DHT22;45916;52.734;6.544;2022-11-15T08:10:52;11.10;99.90
60039;DHT22;45916;52.734;6.544;2022-11-15T08:13:17;11.10;99.90
60039;DHT22;45916;52.734;6.544;2022-11-15T08:15:43;11.20;99.90
60039;DHT22;45916;52.734;6.544;2022-11-15T08:18:14;11.20;99.90
60039;DHT22;45916;52.734;6.544;2022-11-15T08:20:41;11.20;99.90
60039;DHT22;45916;52.734;6.544;2022-11-15T08:23:07;11.20;99.90
60039;DHT22;45916;52.734;6.544;2022-11-15T08:25:35;11.30;99.90
60039;DHT22;45916;52.734;6.544;2022-11-15T08:28:03;11.30;99.90
60039;DHT22;45916;52.734;6.544;2022-11-15T08:30:29;11.30;99.90
60039;DHT22;45916;52.734;6.544;2022-11-15T08:32:57;11.40;99.90
60039;DHT22;45916;52.734;6.544;2022-11-15T08:35:23;11.40;99.90
60039;DHT22;45916;52.734;6.544;2022-11-15T08:37:49;11.40;99.90
60039;DHT22;45916;52.734;6.544;2022-11-15T08:40:15;11.50;99.90
60039;DHT22;45916;52.734;6.544;2022-11-15T08:42:41;11.50;99.90
60039;DHT22;45916;52.734;6.544;2022-11-15T08:45:08;11.60;99.90
60039;DHT22;45916;52.734;6.544;2022-11-15T08:47:34;11.60;99.90
60039;DHT22;45916;52.734;6.544;2022-11-15T08:50:00;11.70;99.90
60039;DHT22;45916;52.734;6.544;2022-11-15T08:52:26;11.60;99.90
60039;DHT22;45916;52.734;6.544;2022-11-15T08:54:51;11.70;99.90
60039;DHT22;45916;52.734;6.544;2022-11-15T08:57:17;11.70;99.90
60039;DHT22;45916;52.734;6.544;2022-11-15T08:59:43;11.70;99.90
60039;DHT22;45916;52.734;6.544;2022-11-15T09:02:13;11.80;99.90
60039;DHT22;45916;52.734;6.544;2022-11-15T09:04:43;11.90;99.90
60039;DHT22;45916;52.734;6.544;2022-11-15T09:07:10;11.90;99.90
60039;DHT22;45916;52.734;6.544;2022-11-15T09:09:36;12.00;99.90
60039;DHT22;45916;52.734;6.544;2022-11-15T09:12:03;12.00;99.90
60039;DHT22;45916;52.734;6.544;2022-11-15T09:14:29;12.00;99.90
60039;DHT22;45916;52.734;6.544;2022-11-15T09:16:55;11.90;99.90
60039;DHT22;45916;52.734;6.544;2022-11-15T09:19:21;11.90;99.90
60039;DHT22;45916;52.734;6.544;2022-11-15T09:21:46;11.90;99.90
60039;DHT22;45916;52.734;6.544;2022-11-15T09:24:12;11.90;99.90
60039;DHT22;45916;52.734;6.544;2022-11-15T09:26:39;11.90;99.90
60039;DHT22;45916;52.734;6.544;2022-11-15T09:29:05;11.90;99.90
60039;DHT22;45916;52.734;6.544;2022-11-15T09:31:30;11.90;99.90
60039;DHT22;45916;52.734;6.544;2022-11-15T09:33:56;12.00;99.90
60039;DHT22;45916;52.734;6.544;2022-11-15T09:36:22;12.00;99.90
60039;DHT22;45916;52.734;6.544;2022-11-15T09:38:48;12.00;99.90
60039;DHT22;45916;52.734;6.544;2022-11-15T09:47:14;12.00;99.90
60039;DHT22;45916;52.734;6.544;2022-11-15T09:49:51;12.00;99.90
60039;DHT22;45916;52.734;6.544;2022-11-15T09:52:19;12.00;99.90
60039;DHT22;45916;52.734;6.544;2022-11-15T09:54:49;12.00;99.90
60039;DHT22;45916;52.734;6.544;2022-11-15T09:57:16;12.00;99.90
60039;DHT22;45916;52.734;6.544;2022-11-15T10:02:31;12.10;99.90
60039;DHT22;45916;52.734;6.544;2022-11-15T10:04:59;12.10;99.90
60039;DHT22;45916;52.734;6.544;2022-11-15T10:07:37;12.20;99.90
60039;DHT22;45916;52.734;6.544;2022-11-15T10:10:41;12.10;99.90
60039;DHT22;45916;52.734;6.544;2022-11-15T10:13:25;12.20;99.90
60039;DHT22;45916;52.734;6.544;2022-11-15T10:15:53;12.30;99.90
60039;DHT22;45916;52.734;6.544;2022-11-15T10:24:27;12.30;99.90
60039;DHT22;45916;52.734;6.544;2022-11-15T10:26:56;12.40;99.90
60039;DHT22;45916;52.734;6.544;2022-11-15T10:29:23;12.40;99.90
60039;DHT22;45916;52.734;6.544;2022-11-15T10:31:49;12.60;99.90
60039;DHT22;45916;52.734;6.544;2022-11-15T10:34:20;13.20;99.90
60039;DHT22;45916;52.734;6.544;2022-11-15T10:36:57;13.60;99.90
60039;DHT22;45916;52.734;6.544;2022-11-15T10:39:24;13.90;99.90
60039;DHT22;45916;52.734;6.544;2022-11-15T10:41:50;14.30;99.90
60039;DHT22;45916;52.734;6.544;2022-11-15T10:44:31;14.90;99.90
60039;DHT22;45916;52.734;6.544;2022-11-15T10:47:04;15.30;99.90
60039;DHT22;45916;52.734;6.544;2022-11-15T10:49:34;15.60;99.90
60039;DHT22;45916;52.734;6.544;2022-11-15T10:52:04;15.80;99.90
60039;DHT22;45916;52.734;6.544;2022-11-15T10:54:42;15.80;99.90
60039;DHT22;45916;52.734;6.544;2022-11-15T10:57:14;15.70;99.90
60039;DHT22;45916;52.734;6.544;2022-11-15T10:59:45;15.50;99.90
60039;DHT22;45916;52.734;6.544;2022-11-15T11:05:03;15.00;99.90
60039;DHT22;45916;52.734;6.544;2022-11-15T11:07:32;14.90;99.90
60039;DHT22;45916;52.734;6.544;2022-11-15T11:10:17;14.70;99.90
60039;DHT22;45916;52.734;6.544;2022-11-15T11:12:43;14.60;99.90
60039;DHT22;45916;52.734;6.544;2022-11-15T11:15:14;14.30;99.90
60039;DHT22;45916;52.734;6.544;2022-11-15T11:17:57;14.10;99.90
60039;DHT22;45916;52.734;6.544;2022-11-15T11:20:42;13.90;99.90
60039;DHT22;45916;52.734;6.544;2022-11-15T11:23:19;13.70;99.90
60039;DHT22;45916;52.734;6.544;2022-11-15T11:29:12;13.50;99.90
60039;DHT22;45916;52.734;6.544;2022-11-15T13:55:35;12.60;99.90
60039;DHT22;45916;52.734;6.544;2022-11-15T13:58:03;12.70;99.90
60039;DHT22;45916;52.734;6.544;2022-11-15T14:00:46;12.60;99.90
60039;DHT22;45916;52.734;6.544;2022-11-15T14:03:22;12.50;99.90
60039;DHT22;45916;52.734;6.544;2022-11-15T14:06:10;12.50;99.90
60039;DHT22;45916;52.734;6.544;2022-11-15T14:08:42;12.40;99.90
60039;DHT22;45916;52.734;6.544;2022-11-15T14:11:22;12.30;99.90
60039;DHT22;45916;52.734;6.544;2022-11-15T14:16:41;12.20;99.90
60039;DHT22;45916;52.734;6.544;2022-11-15T14:22:08;12.10;99.90
60039;DHT22;45916;52.734;6.544;2022-11-15T14:24:34;12.00;99.90
60039;DHT22;45916;52.734;6.544;2022-11-15T14:27:20;11.90;99.90
60039;DHT22;45916;52.734;6.544;2022-11-15T14:29:47;11.90;99.90
60039;DHT22;45916;52.734;6.544;2022-11-15T14:32:22;11.90;99.90
60039;DHT22;45916;52.734;6.544;2022-11-15T14:34:56;11.90;99.90
60039;DHT22;45916;52.734;6.544;2022-11-15T14:37:33;11.90;99.90
60039;DHT22;45916;52.734;6.544;2022-11-15T14:40:04;11.90;99.90
60039;DHT22;45916;52.734;6.544;2022-11-15T14:42:31;11.90;99.90
60039;DHT22;45916;52.734;6.544;2022-11-15T14:44:57;12.00;99.90
60039;DHT22;45916;52.734;6.544;2022-11-15T14:47:22;11.90;99.90
60039;DHT22;45916;52.734;6.544;2022-11-15T14:49:48;12.00;99.90
60039;DHT22;45916;52.734;6.544;2022-11-15T14:52:27;12.10;99.90
60039;DHT22;45916;52.734;6.544;2022-11-15T14:54:54;12.00;99.90
60039;DHT22;45916;52.734;6.544;2022-11-15T14:57:21;12.00;99.90
60039;DHT22;45916;52.734;6.544;2022-11-15T14:59:46;12.00;99.90
60039;DHT22;45916;52.734;6.544;2022-11-15T15:02:19;12.00;99.90
60039;DHT22;45916;52.734;6.544;2022-11-15T15:04:46;12.00;99.90
60039;DHT22;45916;52.734;6.544;2022-11-15T15:07:12;12.00;99.90
60039;DHT22;45916;52.734;6.544;2022-11-15T15:09:37;11.90;99.90
60039;DHT22;45916;52.734;6.544;2022-11-15T15:12:04;12.00;99.90
60039;DHT22;45916;52.734;6.544;2022-11-15T15:14:32;11.90;99.90
60039;DHT22;45916;52.734;6.544;2022-11-15T15:16:57;11.90;99.90
60039;DHT22;45916;52.734;6.544;2022-11-15T15:19:23;11.90;99.90
60039;DHT22;45916;52.734;6.544;2022-11-15T15:21:49;11.90;99.90
60039;DHT22;45916;52.734;6.544;2022-11-15T15:24:15;11.80;99.90
60039;DHT22;45916;52.734;6.544;2022-11-15T15:26:40;11.80;99.90
60039;DHT22;45916;52.734;6.544;2022-11-15T15:29:06;11.80;99.90
60039;DHT22;45916;52.734;6.544;2022-11-15T15:31:34;11.70;99.90
60039;DHT22;45916;52.734;6.544;2022-11-15T15:34:00;11.60;99.90
60039;DHT22;45916;52.734;6.544;2022-11-15T15:36:26;11.60;99.90
60039;DHT22;45916;52.734;6.544;2022-11-15T15:38:52;11.60;99.90
60039;DHT22;45916;52.734;6.544;2022-11-15T15:41:18;11.60;99.90
60039;DHT22;45916;52.734;6.544;2022-11-15T15:43:44;11.50;99.90
60039;DHT22;45916;52.734;6.544;2022-11-15T15:46:13;11.50;99.90
60039;DHT22;45916;52.734;6.544;2022-11-15T15:48:39;11.40;99.90
60039;DHT22;45916;52.734;6.544;2022-11-15T15:51:06;11.40;99.90
60039;DHT22;45916;52.734;6.544;2022-11-15T15:53:32;11.30;99.90
60039;DHT22;45916;52.734;6.544;2022-11-15T15:55:58;11.20;99.90
60039;DHT22;45916;52.734;6.544;2022-11-15T15:58:23;11.20;99.90
60039;DHT22;45916;52.734;6.544;2022-11-15T16:00:49;11.10;99.90
60039;DHT22;45916;52.734;6.544;2022-11-15T16:03:15;11.10;99.90
60039;DHT22;45916;52.734;6.544;2022-11-15T16:05:40;11.10;99.90
60039;DHT22;45916;52.734;6.544;2022-11-15T16:08:23;11.00;99.90
60039;DHT22;45916;52.734;6.544;2022-11-15T16:10:50;11.10;99.90
60039;DHT22;45916;52.734;6.544;2022-11-15T16:13:16;11.10;99.90
60039;DHT22;45916;52.734;6.544;2022-11-15T16:15:43;11.10;99.90
60039;DHT22;45916;52.734;6.544;2022-11-15T16:18:15;11.10;99.90
60039;DHT22;45916;52.734;6.544;2022-11-15T16:20:50;11.10;99.90
60039;DHT22;45916;52.734;6.544;2022-11-15T16:23:18;11.10;99.90
60039;DHT22;45916;52.734;6.544;2022-11-15T16:25:53;11.20;99.90
60039;DHT22;45916;52.734;6.544;2022-11-15T16:28:31;11.20;99.90
60039;DHT22;45916;52.734;6.544;2022-11-15T16:31:09;11.30;99.90
60039;DHT22;45916;52.734;6.544;2022-11-15T16:33:35;11.30;99.90
60039;DHT22;45916;52.734;6.544;2022-11-15T16:36:02;11.30;99.90
60039;DHT22;45916;52.734;6.544;2022-11-15T16:38:28;11.30;99.90
60039;DHT22;45916;52.734;6.544;2022-11-15T16:40:54;11.30;99.90
60039;DHT22;45916;52.734;6.544;2022-11-15T16:43:19;11.40;99.90
60039;DHT22;45916;52.734;6.544;2022-11-15T16:45:45;11.40;99.90
60039;DHT22;45916;52.734;6.544;2022-11-15T16:48:24;11.40;99.90
60039;DHT22;45916;52.734;6.544;2022-11-15T16:50:51;11.40;99.90
60039;DHT22;45916;52.734;6.544;2022-11-15T16:53:19;11.50;99.90
60039;DHT22;45916;52.734;6.544;2022-11-15T16:55:44;11.50;99.90
60039;DHT22;45916;52.734;6.544;2022-11-15T16:58:10;11.50;99.90
60039;DHT22;45916;52.734;6.544;2022-11-15T17:00:35;11.50;99.90
60039;DHT22;45916;52.734;6.544;2022-11-15T17:03:01;11.50;99.90
60039;DHT22;45916;52.734;6.544;2022-11-15T17:05:28;11.50;99.90
60039;DHT22;45916;52.734;6.544;2022-11-15T17:07:54;11.60;99.90
60039;DHT22;45916;52.734;6.544;2022-11-15T17:10:21;11.60;99.90
60039;DHT22;45916;52.734;6.544;2022-11-15T17:12:47;11.60;99.90
60039;DHT22;45916;52.734;6.544;2022-11-15T17:15:14;11.60;99.90
60039;DHT22;45916;52.734;6.544;2022-11-15T17:17:40;11.60;99.90
60039;DHT22;45916;52.734;6.544;2022-11-15T17:20:12;11.70;99.90
60039;DHT22;45916;52.734;6.544;2022-11-15T17:22:38;11.70;99.90
60039;DHT22;45916;52.734;6.544;2022-11-15T17:25:04;11.70;99.90
60039;DHT22;45916;52.734;6.544;2022-11-15T17:27:30;11.70;99.90
60039;DHT22;45916;52.734;6.544;2022-11-15T17:29:56;11.70;99.90
60039;DHT22;45916;52.734;6.544;2022-11-15T17:32:22;11.80;99.90
60039;DHT22;45916;52.734;6.544;2022-11-15T17:34:47;11.80;99.90
60039;DHT22;45916;52.734;6.544;2022-11-15T17:37:13;11.80;99.90
60039;DHT22;45916;52.734;6.544;2022-11-15T17:39:38;11.80;99.90
60039;DHT22;45916;52.734;6.544;2022-11-15T17:42:04;11.80;99.90
60039;DHT22;45916;52.734;6.544;2022-11-15T17:44:31;11.80;99.90
60039;DHT22;45916;52.734;6.544;2022-11-15T17:46:57;11.80;99.90
60039;DHT22;45916;52.734;6.544;2022-11-15T17:49:23;11.80;99.90
60039;DHT22;45916;52.734;6.544;2022-11-15T17:51:48;11.80;99.90
60039;DHT22;45916;52.734;6.544;2022-11-15T17:54:14;11.80;99.90
60039;DHT22;45916;52.734;6.544;2022-11-15T17:56:40;11.80;99.90
60039;DHT22;45916;52.734;6.544;2022-11-15T17:59:06;11.80;99.90
60039;DHT22;45916;52.734;6.544;2022-11-15T18:01:36;11.80;99.90
60039;DHT22;45916;52.734;6.544;2022-11-15T18:04:04;11.80;99.90
60039;DHT22;45916;52.734;6.544;2022-11-15T18:06:33;11.80;99.90
60039;DHT22;45916;52.734;6.544;2022-11-15T18:09:00;11.80;99.90
60039;DHT22;45916;52.734;6.544;2022-11-15T18:11:35;11.80;99.90
60039;DHT22;45916;52.734;6.544;2022-11-15T18:14:05;11.80;99.90
60039;DHT22;45916;52.734;6.544;2022-11-15T18:16:34;11.80;99.90
60039;DHT22;45916;52.734;6.544;2022-11-15T18:19:00;11.80;99.90
60039;DHT22;45916;52.734;6.544;2022-11-15T18:21:28;11.80;99.90
60039;DHT22;45916;52.734;6.544;2022-11-15T18:23:58;11.90;99.90
60039;DHT22;45916;52.734;6.544;2022-11-15T18:26:26;11.90;99.90
60039;DHT22;45916;52.734;6.544;2022-11-15T18:29:00;11.90;99.90
60039;DHT22;45916;52.734;6.544;2022-11-15T18:31:28;11.90;99.90
60039;DHT22;45916;52.734;6.544;2022-11-15T18:33:54;11.90;99.90
60039;DHT22;45916;52.734;6.544;2022-11-15T18:36:26;11.90;99.90
60039;DHT22;45916;52.734;6.544;2022-11-15T18:38:57;11.90;99.90
60039;DHT22;45916;52.734;6.544;2022-11-15T18:41:23;11.90;99.90
60039;DHT22;45916;52.734;6.544;2022-11-15T18:43:53;11.90;99.90
60039;DHT22;45916;52.734;6.544;2022-11-15T18:46:21;11.90;99.90
60039;DHT22;45916;52.734;6.544;2022-11-15T18:48:48;11.80;99.90
60039;DHT22;45916;52.734;6.544;2022-11-15T18:51:23;11.80;99.90
60039;DHT22;45916;52.734;6.544;2022-11-15T18:53:54;11.80;99.90
60039;DHT22;45916;52.734;6.544;2022-11-15T18:56:20;11.80;99.90
60039;DHT22;45916;52.734;6.544;2022-11-15T18:58:50;11.70;99.90
60039;DHT22;45916;52.734;6.544;2022-11-15T19:01:21;11.80;99.90